MDL348 WAAA-WADD
Flight info
| Callsign | MDL348 |
|---|---|
| Flight time | 1h 4m |
| Altitude | 38000 |
| Route | LIPOT W41 PEDET |
| Aircraft | A319/M-SDE3FGHIRWY/LB1 |
Departure
| Time | 2026-04-20 12:56 |
|---|---|
| Airport | Sultan Hasanuddin International Airport (WAAA) |
Arrival
| Time | 2026-04-20 14:00 |
|---|---|
| Airport | Denpasar I Gusti Ngurah Rai International Airport (WADD) |
| Time | Latitude | Longitude | Altitude | Speed | Heading |
|---|---|---|---|---|---|
| 2026-04-20 12:34 | -5.08148 | 119.54507 | 51 ft | 0 kts | 300° |
| 2026-04-20 12:46 | -5.08155 | 119.54519 | 51 ft | 2 kts | 299° |
| 2026-04-20 12:46 | -5.08162 | 119.54532 | 51 ft | 2 kts | 300° |
| 2026-04-20 12:46 | -5.08169 | 119.54545 | 51 ft | 2 kts | 309° |
| 2026-04-20 12:46 | -5.08181 | 119.54554 | 51 ft | 2 kts | 332° |
| 2026-04-20 12:47 | -5.08195 | 119.54559 | 51 ft | 2 kts | 354° |
| 2026-04-20 12:47 | -5.08211 | 119.54559 | 51 ft | 2 kts | 15° |
| 2026-04-20 12:47 | -5.08219 | 119.54555 | 51 ft | 1 kts | 28° |
| 2026-04-20 12:47 | -5.08224 | 119.54552 | 51 ft | 0 kts | 30° |
| 2026-04-20 12:50 | -5.08191 | 119.54572 | 51 ft | 10 kts | 30° |
| 2026-04-20 12:50 | -5.08116 | 119.54616 | 51 ft | 11 kts | 28° |
| 2026-04-20 12:50 | -5.08044 | 119.54655 | 51 ft | 12 kts | 29° |
| 2026-04-20 12:50 | -5.08000 | 119.54684 | 51 ft | 6 kts | 54° |
| 2026-04-20 12:51 | -5.07998 | 119.54736 | 51 ft | 9 kts | 115° |
| 2026-04-20 12:51 | -5.08040 | 119.54810 | 51 ft | 13 kts | 120° |
| 2026-04-20 12:51 | -5.08048 | 119.54874 | 51 ft | 10 kts | 52° |
| 2026-04-20 12:51 | -5.07976 | 119.54923 | 51 ft | 16 kts | 30° |
| 2026-04-20 12:52 | -5.07857 | 119.54991 | 51 ft | 22 kts | 30° |
| 2026-04-20 12:52 | -5.07708 | 119.55077 | 51 ft | 26 kts | 30° |
| 2026-04-20 12:52 | -5.07541 | 119.55173 | 51 ft | 29 kts | 30° |
| 2026-04-20 12:52 | -5.07364 | 119.55276 | 51 ft | 28 kts | 30° |
| 2026-04-20 12:53 | -5.07192 | 119.55376 | 51 ft | 27 kts | 30° |
| 2026-04-20 12:53 | -5.07031 | 119.55469 | 51 ft | 25 kts | 30° |
| 2026-04-20 12:53 | -5.06876 | 119.55559 | 51 ft | 24 kts | 30° |
| 2026-04-20 12:53 | -5.06727 | 119.55644 | 51 ft | 24 kts | 30° |
| 2026-04-20 12:54 | -5.06658 | 119.55692 | 51 ft | 8 kts | 76° |
| 2026-04-20 12:54 | -5.06685 | 119.55753 | 51 ft | 10 kts | 130° |
| 2026-04-20 12:54 | -5.06736 | 119.55812 | 51 ft | 8 kts | 130° |
| 2026-04-20 12:54 | -5.06771 | 119.55821 | 51 ft | 6 kts | 200° |
| 2026-04-20 12:55 | -5.06793 | 119.55808 | 51 ft | 0 kts | 211° |
| 2026-04-20 12:55 | -5.06799 | 119.55804 | 51 ft | 6 kts | 210° |
| 2026-04-20 12:55 | -5.07052 | 119.55659 | 52 ft | 83 kts | 210° |
| 2026-04-20 12:56 | -5.07782 | 119.55238 | 55 ft | 155 kts | 210° |
| 2026-04-20 12:56 | -5.08737 | 119.54697 | 754 ft | 158 kts | 209° |
| 2026-04-20 12:56 | -5.09688 | 119.54163 | 1566 ft | 160 kts | 209° |
| 2026-04-20 12:56 | -5.10653 | 119.53616 | 2157 ft | 167 kts | 210° |
| 2026-04-20 12:57 | -5.11626 | 119.52896 | 2609 ft | 183 kts | 226° |
| 2026-04-20 12:57 | -5.12476 | 119.51887 | 3083 ft | 200 kts | 232° |
| 2026-04-20 12:57 | -5.13345 | 119.50755 | 3479 ft | 223 kts | 232° |
| 2026-04-20 12:57 | -5.14315 | 119.49509 | 4009 ft | 242 kts | 231° |
| 2026-04-20 12:58 | -5.15385 | 119.48165 | 4568 ft | 261 kts | 231° |
| 2026-04-20 12:58 | -5.16537 | 119.46743 | 5322 ft | 271 kts | 231° |
| 2026-04-20 12:58 | -5.17767 | 119.45240 | 6292 ft | 273 kts | 230° |
| 2026-04-20 12:58 | -5.18989 | 119.43754 | 7201 ft | 277 kts | 230° |
| 2026-04-20 12:59 | -5.20219 | 119.42264 | 8071 ft | 280 kts | 230° |
| 2026-04-20 12:59 | -5.21462 | 119.40759 | 8917 ft | 284 kts | 230° |
| 2026-04-20 12:59 | -5.22745 | 119.39208 | 9743 ft | 287 kts | 230° |
| 2026-04-20 12:59 | -5.24040 | 119.37644 | 10492 ft | 292 kts | 230° |
| 2026-04-20 13:00 | -5.25388 | 119.36017 | 10909 ft | 309 kts | 230° |
| 2026-04-20 13:00 | -5.26835 | 119.34267 | 11251 ft | 328 kts | 230° |
| 2026-04-20 13:00 | -5.28324 | 119.32455 | 11678 ft | 341 kts | 230° |
| 2026-04-20 13:00 | -5.29874 | 119.30570 | 12390 ft | 345 kts | 230° |
| 2026-04-20 13:01 | -5.31413 | 119.28702 | 13117 ft | 348 kts | 230° |
| 2026-04-20 13:01 | -5.32969 | 119.26817 | 13800 ft | 352 kts | 230° |
| 2026-04-20 13:01 | -5.34551 | 119.24902 | 14470 ft | 355 kts | 230° |
| 2026-04-20 13:01 | -5.36162 | 119.22955 | 15133 ft | 359 kts | 230° |
| 2026-04-20 13:02 | -5.37791 | 119.20985 | 15779 ft | 362 kts | 230° |
| 2026-04-20 13:02 | -5.39450 | 119.18981 | 16416 ft | 366 kts | 230° |
| 2026-04-20 13:02 | -5.41100 | 119.16988 | 17026 ft | 369 kts | 230° |
| 2026-04-20 13:02 | -5.42782 | 119.14955 | 17627 ft | 372 kts | 230° |
| 2026-04-20 13:03 | -5.44461 | 119.12926 | 18211 ft | 376 kts | 230° |
| 2026-04-20 13:03 | -5.46143 | 119.10893 | 18778 ft | 379 kts | 230° |
| 2026-04-20 13:03 | -5.47850 | 119.08830 | 19337 ft | 382 kts | 230° |
| 2026-04-20 13:03 | -5.49575 | 119.06746 | 19885 ft | 385 kts | 230° |
| 2026-04-20 13:04 | -5.51296 | 119.04665 | 20415 ft | 388 kts | 230° |
| 2026-04-20 13:04 | -5.53062 | 119.02531 | 20941 ft | 391 kts | 230° |
| 2026-04-20 13:04 | -5.54815 | 119.00411 | 21445 ft | 394 kts | 230° |
| 2026-04-20 13:04 | -5.56610 | 118.98241 | 21943 ft | 397 kts | 230° |
| 2026-04-20 13:05 | -5.58407 | 118.96069 | 22424 ft | 400 kts | 230° |
| 2026-04-20 13:05 | -5.60194 | 118.93907 | 22888 ft | 403 kts | 230° |
| 2026-04-20 13:05 | -5.62017 | 118.91702 | 23345 ft | 406 kts | 230° |
| 2026-04-20 13:05 | -5.63834 | 118.89504 | 23783 ft | 409 kts | 230° |
| 2026-04-20 13:06 | -5.65663 | 118.87291 | 24211 ft | 411 kts | 230° |
| 2026-04-20 13:06 | -5.67526 | 118.85037 | 24635 ft | 414 kts | 230° |
| 2026-04-20 13:06 | -5.69376 | 118.82800 | 25044 ft | 417 kts | 230° |
| 2026-04-20 13:06 | -5.71266 | 118.80512 | 25449 ft | 419 kts | 230° |
| 2026-04-20 13:07 | -5.73158 | 118.78222 | 25845 ft | 422 kts | 230° |
| 2026-04-20 13:07 | -5.75052 | 118.75930 | 26232 ft | 424 kts | 230° |
| 2026-04-20 13:07 | -5.76960 | 118.73619 | 26613 ft | 427 kts | 230° |
| 2026-04-20 13:07 | -5.78872 | 118.71304 | 26984 ft | 429 kts | 230° |
| 2026-04-20 13:08 | -5.80802 | 118.68968 | 27350 ft | 432 kts | 230° |
| 2026-04-20 13:08 | -5.82758 | 118.66599 | 27714 ft | 434 kts | 230° |
| 2026-04-20 13:08 | -5.84704 | 118.64243 | 28062 ft | 436 kts | 230° |
| 2026-04-20 13:08 | -5.86647 | 118.61890 | 28400 ft | 439 kts | 230° |
| 2026-04-20 13:09 | -5.88621 | 118.59498 | 28739 ft | 441 kts | 230° |
| 2026-04-20 13:09 | -5.90570 | 118.57137 | 29065 ft | 443 kts | 230° |
| 2026-04-20 13:09 | -5.92562 | 118.54723 | 29391 ft | 446 kts | 230° |
| 2026-04-20 13:09 | -5.94574 | 118.52285 | 29711 ft | 448 kts | 230° |
| 2026-04-20 13:10 | -5.96577 | 118.49857 | 30036 ft | 449 kts | 230° |
| 2026-04-20 13:10 | -5.98579 | 118.47430 | 30451 ft | 448 kts | 230° |
| 2026-04-20 13:10 | -6.00596 | 118.44984 | 30891 ft | 447 kts | 230° |
| 2026-04-20 13:10 | -6.02580 | 118.42580 | 31301 ft | 446 kts | 230° |
| 2026-04-20 13:11 | -6.04575 | 118.40160 | 31692 ft | 445 kts | 230° |
| 2026-04-20 13:11 | -6.06555 | 118.37760 | 32071 ft | 445 kts | 230° |
| 2026-04-20 13:11 | -6.08556 | 118.35332 | 32448 ft | 444 kts | 230° |
| 2026-04-20 13:11 | -6.10527 | 118.32935 | 32813 ft | 443 kts | 230° |
| 2026-04-20 13:12 | -6.12517 | 118.30521 | 33175 ft | 442 kts | 230° |
| 2026-04-20 13:12 | -6.14467 | 118.28162 | 33521 ft | 442 kts | 230° |
| 2026-04-20 13:12 | -6.16468 | 118.25738 | 33868 ft | 441 kts | 230° |
| 2026-04-20 13:12 | -6.18419 | 118.23373 | 34198 ft | 440 kts | 230° |
| 2026-04-20 13:13 | -6.20400 | 118.20971 | 34524 ft | 440 kts | 230° |
| 2026-04-20 13:13 | -6.22349 | 118.18606 | 34837 ft | 439 kts | 230° |
| 2026-04-20 13:13 | -6.24315 | 118.16220 | 35144 ft | 439 kts | 230° |
| 2026-04-20 13:13 | -6.26260 | 118.13858 | 35439 ft | 438 kts | 230° |
| 2026-04-20 13:14 | -6.28227 | 118.11470 | 35726 ft | 437 kts | 230° |
| 2026-04-20 13:14 | -6.30176 | 118.09103 | 35998 ft | 437 kts | 230° |
| 2026-04-20 13:14 | -6.32140 | 118.06718 | 36254 ft | 436 kts | 230° |
| 2026-04-20 13:14 | -6.34094 | 118.04344 | 36461 ft | 437 kts | 230° |
| 2026-04-20 13:15 | -6.36039 | 118.01981 | 36634 ft | 438 kts | 230° |
| 2026-04-20 13:15 | -6.38004 | 117.99594 | 36799 ft | 440 kts | 230° |
| 2026-04-20 13:15 | -6.39979 | 117.97194 | 36962 ft | 441 kts | 230° |
| 2026-04-20 13:15 | -6.41963 | 117.94783 | 37123 ft | 442 kts | 230° |
| 2026-04-20 13:16 | -6.43939 | 117.92381 | 37275 ft | 442 kts | 230° |
| 2026-04-20 13:16 | -6.45899 | 117.89998 | 37419 ft | 443 kts | 230° |
| 2026-04-20 13:16 | -6.47899 | 117.87565 | 37560 ft | 444 kts | 230° |
| 2026-04-20 13:16 | -6.49906 | 117.85123 | 37696 ft | 445 kts | 230° |
| 2026-04-20 13:17 | -6.51876 | 117.82727 | 37824 ft | 446 kts | 230° |
| 2026-04-20 13:17 | -6.53880 | 117.80290 | 37949 ft | 447 kts | 230° |
| 2026-04-20 13:17 | -6.55889 | 117.77846 | 37991 ft | 448 kts | 230° |
| 2026-04-20 13:18 | -6.59885 | 117.72984 | 38002 ft | 448 kts | 230° |
| 2026-04-20 13:18 | -6.63893 | 117.68110 | 38004 ft | 448 kts | 230° |
| 2026-04-20 13:19 | -6.67928 | 117.63197 | 38004 ft | 448 kts | 230° |
| 2026-04-20 13:19 | -6.71977 | 117.58357 | 38004 ft | 448 kts | 230° |
| 2026-04-20 13:20 | -6.76027 | 117.53558 | 38004 ft | 448 kts | 230° |
| 2026-04-20 13:20 | -6.80114 | 117.48709 | 38004 ft | 448 kts | 230° |
| 2026-04-20 13:21 | -6.84187 | 117.43874 | 38004 ft | 448 kts | 230° |
| 2026-04-20 13:21 | -6.88270 | 117.39023 | 38004 ft | 448 kts | 230° |
| 2026-04-20 13:22 | -6.92324 | 117.34206 | 38004 ft | 448 kts | 230° |
| 2026-04-20 13:22 | -6.96383 | 117.29356 | 38004 ft | 448 kts | 230° |
| 2026-04-20 13:23 | -7.00427 | 117.24532 | 38004 ft | 448 kts | 230° |
| 2026-04-20 13:23 | -7.04454 | 117.19737 | 38004 ft | 448 kts | 230° |
| 2026-04-20 13:24 | -7.08496 | 117.14928 | 38004 ft | 448 kts | 230° |
| 2026-04-20 13:24 | -7.12568 | 117.10098 | 38004 ft | 448 kts | 229° |
| 2026-04-20 13:25 | -7.16659 | 117.05260 | 38004 ft | 448 kts | 230° |
| 2026-04-20 13:25 | -7.20699 | 117.00462 | 38004 ft | 448 kts | 230° |
| 2026-04-20 13:26 | -7.24756 | 116.95632 | 38004 ft | 448 kts | 230° |
| 2026-04-20 13:26 | -7.28865 | 116.90737 | 38004 ft | 448 kts | 230° |
| 2026-04-20 13:27 | -7.32933 | 116.85889 | 38004 ft | 448 kts | 230° |
| 2026-04-20 13:27 | -7.36987 | 116.81056 | 38004 ft | 448 kts | 230° |
| 2026-04-20 13:28 | -7.41042 | 116.76221 | 38004 ft | 448 kts | 230° |
| 2026-04-20 13:28 | -7.45037 | 116.71458 | 38004 ft | 448 kts | 230° |
| 2026-04-20 13:29 | -7.49104 | 116.66606 | 37511 ft | 449 kts | 230° |
| 2026-04-20 13:29 | -7.51150 | 116.64166 | 36956 ft | 447 kts | 229° |
| 2026-04-20 13:29 | -7.53206 | 116.61784 | 36348 ft | 447 kts | 228° |
| 2026-04-20 13:29 | -7.55305 | 116.59403 | 35711 ft | 447 kts | 228° |
| 2026-04-20 13:30 | -7.57376 | 116.57066 | 35068 ft | 447 kts | 228° |
| 2026-04-20 13:30 | -7.59463 | 116.54707 | 34408 ft | 448 kts | 228° |
| 2026-04-20 13:30 | -7.61568 | 116.52323 | 33734 ft | 448 kts | 228° |
| 2026-04-20 13:30 | -7.63669 | 116.49941 | 33051 ft | 449 kts | 228° |
| 2026-04-20 13:31 | -7.65803 | 116.47519 | 32351 ft | 450 kts | 228° |
| 2026-04-20 13:31 | -7.67892 | 116.45149 | 31660 ft | 451 kts | 228° |
| 2026-04-20 13:31 | -7.69989 | 116.42767 | 30950 ft | 451 kts | 228° |
| 2026-04-20 13:31 | -7.72102 | 116.40368 | 30225 ft | 452 kts | 228° |
| 2026-04-20 13:32 | -7.74213 | 116.37971 | 29513 ft | 453 kts | 228° |
| 2026-04-20 13:32 | -7.76324 | 116.35574 | 29049 ft | 447 kts | 228° |
| 2026-04-20 13:32 | -7.78372 | 116.33240 | 28581 ft | 442 kts | 229° |
| 2026-04-20 13:32 | -7.80413 | 116.30872 | 28092 ft | 437 kts | 232° |
| 2026-04-20 13:33 | -7.82037 | 116.28225 | 27585 ft | 433 kts | 245° |
| 2026-04-20 13:33 | -7.82971 | 116.25352 | 27095 ft | 428 kts | 259° |
| 2026-04-20 13:33 | -7.83294 | 116.22338 | 26618 ft | 424 kts | 266° |
| 2026-04-20 13:33 | -7.83426 | 116.19371 | 26143 ft | 419 kts | 268° |
| 2026-04-20 13:34 | -7.83533 | 116.16441 | 25676 ft | 415 kts | 268° |
| 2026-04-20 13:34 | -7.83645 | 116.13530 | 25206 ft | 412 kts | 268° |
| 2026-04-20 13:34 | -7.83767 | 116.10621 | 24738 ft | 408 kts | 268° |
| 2026-04-20 13:34 | -7.83896 | 116.07717 | 24265 ft | 404 kts | 267° |
| 2026-04-20 13:35 | -7.84026 | 116.04869 | 23802 ft | 401 kts | 267° |
| 2026-04-20 13:35 | -7.84158 | 116.02059 | 23343 ft | 398 kts | 267° |
| 2026-04-20 13:35 | -7.84290 | 115.99249 | 22881 ft | 395 kts | 267° |
| 2026-04-20 13:35 | -7.84493 | 115.96461 | 22419 ft | 396 kts | 260° |
| 2026-04-20 13:36 | -7.85355 | 115.93776 | 21957 ft | 397 kts | 243° |
| 2026-04-20 13:36 | -7.86941 | 115.91507 | 21504 ft | 394 kts | 225° |
| 2026-04-20 13:36 | -7.89093 | 115.89762 | 21055 ft | 392 kts | 214° |
| 2026-04-20 13:36 | -7.91407 | 115.88273 | 20600 ft | 389 kts | 211° |
| 2026-04-20 13:37 | -7.93743 | 115.86835 | 20142 ft | 386 kts | 211° |
| 2026-04-20 13:37 | -7.96045 | 115.85430 | 19719 ft | 383 kts | 211° |
| 2026-04-20 13:37 | -7.98340 | 115.84031 | 19240 ft | 381 kts | 211° |
| 2026-04-20 13:37 | -8.00639 | 115.82629 | 18833 ft | 378 kts | 211° |
| 2026-04-20 13:38 | -8.02902 | 115.81250 | 18429 ft | 376 kts | 211° |
| 2026-04-20 13:38 | -8.05179 | 115.79861 | 18021 ft | 374 kts | 211° |
| 2026-04-20 13:38 | -8.07418 | 115.78496 | 17642 ft | 372 kts | 211° |
| 2026-04-20 13:38 | -8.09641 | 115.77141 | 17264 ft | 370 kts | 211° |
| 2026-04-20 13:39 | -8.11866 | 115.75787 | 16883 ft | 368 kts | 211° |
| 2026-04-20 13:39 | -8.14079 | 115.74448 | 16502 ft | 366 kts | 211° |
| 2026-04-20 13:39 | -8.16268 | 115.73124 | 16124 ft | 364 kts | 211° |
| 2026-04-20 13:39 | -8.18472 | 115.71791 | 15741 ft | 362 kts | 211° |
| 2026-04-20 13:40 | -8.20604 | 115.70502 | 15368 ft | 360 kts | 211° |
| 2026-04-20 13:40 | -8.22773 | 115.69190 | 14987 ft | 358 kts | 211° |
| 2026-04-20 13:40 | -8.24906 | 115.67900 | 14610 ft | 356 kts | 211° |
| 2026-04-20 13:40 | -8.27015 | 115.66625 | 14235 ft | 354 kts | 210° |
| 2026-04-20 13:41 | -8.29217 | 115.65523 | 14014 ft | 351 kts | 202° |
| 2026-04-20 13:41 | -8.31489 | 115.64601 | 14005 ft | 352 kts | 201° |
| 2026-04-20 13:41 | -8.33787 | 115.63706 | 14003 ft | 353 kts | 201° |
| 2026-04-20 13:41 | -8.36095 | 115.62814 | 14001 ft | 353 kts | 201° |
| 2026-04-20 13:42 | -8.38394 | 115.61926 | 14001 ft | 353 kts | 201° |
| 2026-04-20 13:42 | -8.42985 | 115.60155 | 13613 ft | 352 kts | 201° |
| 2026-04-20 13:42 | -8.45263 | 115.59275 | 13180 ft | 350 kts | 201° |
| 2026-04-20 13:43 | -8.47590 | 115.58377 | 12716 ft | 348 kts | 201° |
| 2026-04-20 13:43 | -8.49850 | 115.57504 | 12264 ft | 347 kts | 201° |
| 2026-04-20 13:43 | -8.52135 | 115.56622 | 11775 ft | 346 kts | 201° |
| 2026-04-20 13:43 | -8.54387 | 115.55753 | 11272 ft | 346 kts | 201° |
| 2026-04-20 13:44 | -8.56661 | 115.54874 | 10764 ft | 346 kts | 201° |
| 2026-04-20 13:44 | -8.58943 | 115.53994 | 10254 ft | 346 kts | 201° |
| 2026-04-20 13:44 | -8.61192 | 115.53125 | 9750 ft | 345 kts | 201° |
| 2026-04-20 13:44 | -8.63432 | 115.52261 | 9248 ft | 345 kts | 201° |
| 2026-04-20 13:45 | -8.65636 | 115.51410 | 8751 ft | 339 kts | 201° |
| 2026-04-20 13:45 | -8.67828 | 115.50563 | 8246 ft | 332 kts | 201° |
| 2026-04-20 13:45 | -8.69962 | 115.49739 | 7746 ft | 327 kts | 201° |
| 2026-04-20 13:45 | -8.72089 | 115.48911 | 7240 ft | 323 kts | 202° |
| 2026-04-20 13:46 | -8.73969 | 115.47708 | 6727 ft | 319 kts | 223° |
| 2026-04-20 13:46 | -8.75466 | 115.46073 | 6281 ft | 314 kts | 230° |
| 2026-04-20 13:46 | -8.76832 | 115.44397 | 6091 ft | 300 kts | 231° |
| 2026-04-20 13:46 | -8.78125 | 115.42779 | 6087 ft | 285 kts | 231° |
| 2026-04-20 13:47 | -8.79351 | 115.41238 | 6085 ft | 273 kts | 231° |
| 2026-04-20 13:47 | -8.80559 | 115.39721 | 6084 ft | 272 kts | 231° |
| 2026-04-20 13:47 | -8.81757 | 115.38216 | 6083 ft | 272 kts | 231° |
| 2026-04-20 13:47 | -8.82949 | 115.36718 | 6083 ft | 272 kts | 231° |
| 2026-04-20 13:48 | -8.84154 | 115.35205 | 6083 ft | 272 kts | 231° |
| 2026-04-20 13:48 | -8.85336 | 115.33712 | 6083 ft | 272 kts | 231° |
| 2026-04-20 13:48 | -8.86466 | 115.32138 | 6072 ft | 272 kts | 243° |
| 2026-04-20 13:48 | -8.87058 | 115.30298 | 5781 ft | 276 kts | 258° |
| 2026-04-20 13:49 | -8.87406 | 115.28352 | 5396 ft | 278 kts | 261° |
| 2026-04-20 13:49 | -8.87705 | 115.26397 | 5015 ft | 279 kts | 261° |
| 2026-04-20 13:49 | -8.87994 | 115.24452 | 4639 ft | 280 kts | 262° |
| 2026-04-20 13:49 | -8.88287 | 115.22472 | 4260 ft | 281 kts | 262° |
| 2026-04-20 13:50 | -8.88580 | 115.20494 | 4091 ft | 273 kts | 262° |
| 2026-04-20 13:50 | -8.88854 | 115.18640 | 4089 ft | 265 kts | 262° |
| 2026-04-20 13:50 | -8.89131 | 115.16764 | 4085 ft | 264 kts | 262° |
| 2026-04-20 13:50 | -8.89409 | 115.14882 | 4084 ft | 264 kts | 262° |
| 2026-04-20 13:51 | -8.89683 | 115.13026 | 4083 ft | 264 kts | 262° |
| 2026-04-20 13:51 | -8.89960 | 115.11146 | 4083 ft | 264 kts | 262° |
| 2026-04-20 13:51 | -8.90232 | 115.09309 | 4083 ft | 264 kts | 262° |
| 2026-04-20 13:51 | -8.90508 | 115.07439 | 4083 ft | 264 kts | 262° |
| 2026-04-20 13:52 | -8.90612 | 115.05558 | 4037 ft | 265 kts | 275° |
| 2026-04-20 13:52 | -8.90352 | 115.03692 | 3657 ft | 269 kts | 280° |
| 2026-04-20 13:52 | -8.89993 | 115.01800 | 3276 ft | 271 kts | 281° |
| 2026-04-20 13:52 | -8.89636 | 115.00002 | 3091 ft | 254 kts | 281° |
| 2026-04-20 13:53 | -8.89285 | 114.98253 | 3085 ft | 237 kts | 281° |
| 2026-04-20 13:53 | -8.88959 | 114.96627 | 3084 ft | 230 kts | 281° |
| 2026-04-20 13:53 | -8.88636 | 114.95021 | 3083 ft | 230 kts | 282° |
| 2026-04-20 13:53 | -8.88014 | 114.93520 | 3067 ft | 240 kts | 312° |
| 2026-04-20 13:54 | -8.86516 | 114.92625 | 3078 ft | 258 kts | 347° |
| 2026-04-20 13:54 | -8.84716 | 114.92379 | 3085 ft | 260 kts | 356° |
| 2026-04-20 13:54 | -8.82872 | 114.92237 | 3084 ft | 261 kts | 355° |
| 2026-04-20 13:54 | -8.81016 | 114.92037 | 3075 ft | 261 kts | 353° |
| 2026-04-20 13:55 | -8.79198 | 114.91790 | 3079 ft | 261 kts | 354° |
| 2026-04-20 13:55 | -8.77402 | 114.91996 | 3068 ft | 260 kts | 24° |
| 2026-04-20 13:55 | -8.75977 | 114.93165 | 2995 ft | 261 kts | 57° |
| 2026-04-20 13:55 | -8.75404 | 114.94859 | 2847 ft | 253 kts | 86° |
| 2026-04-20 13:56 | -8.75402 | 114.96646 | 2748 ft | 244 kts | 92° |
| 2026-04-20 13:56 | -8.75458 | 114.98360 | 2662 ft | 235 kts | 92° |
| 2026-04-20 13:56 | -8.75479 | 115.00008 | 2587 ft | 226 kts | 89° |
| 2026-04-20 13:56 | -8.75436 | 115.01594 | 2482 ft | 218 kts | 88° |
| 2026-04-20 13:57 | -8.75377 | 115.03123 | 2354 ft | 213 kts | 88° |
| 2026-04-20 13:57 | -8.75316 | 115.04626 | 2055 ft | 208 kts | 88° |
| 2026-04-20 13:57 | -8.75256 | 115.06099 | 1783 ft | 202 kts | 88° |
| 2026-04-20 13:57 | -8.75202 | 115.07473 | 1589 ft | 191 kts | 88° |
| 2026-04-20 13:58 | -8.75150 | 115.08817 | 1291 ft | 185 kts | 88° |
| 2026-04-20 13:58 | -8.75099 | 115.10114 | 1055 ft | 175 kts | 88° |
| 2026-04-20 13:58 | -8.75051 | 115.11346 | 821 ft | 164 kts | 88° |
| 2026-04-20 13:58 | -8.75007 | 115.12470 | 591 ft | 152 kts | 88° |
| 2026-04-20 13:59 | -8.74965 | 115.13509 | 386 ft | 140 kts | 88° |
| 2026-04-20 13:59 | -8.74927 | 115.14488 | 187 ft | 137 kts | 88° |
| 2026-04-20 13:59 | -8.74889 | 115.15468 | 41 ft | 136 kts | 88° |
| 2026-04-20 13:59 | -8.74855 | 115.16335 | 23 ft | 103 kts | 88° |
| 2026-04-20 14:00 | -8.74835 | 115.16899 | 23 ft | 60 kts | 88° |
| 2026-04-20 14:00 | -8.74822 | 115.17200 | 23 ft | 36 kts | 87° |
| 2026-04-20 14:00 | -8.74792 | 115.17310 | 22 ft | 2 kts | 11° |
| 2026-04-20 14:00 | -8.74763 | 115.17310 | 22 ft | 5 kts | 358° |
| 2026-04-20 14:01 | -8.74718 | 115.17308 | 22 ft | 7 kts | 358° |
| 2026-04-20 14:01 | -8.74693 | 115.17307 | 22 ft | 3 kts | 358° |
| 2026-04-20 14:01 | -8.74662 | 115.17296 | 22 ft | 5 kts | 317° |
| 2026-04-20 14:01 | -8.74654 | 115.17252 | 22 ft | 7 kts | 267° |
| 2026-04-20 14:02 | -8.74657 | 115.17194 | 22 ft | 9 kts | 267° |
| 2026-04-20 14:02 | -8.74659 | 115.17124 | 22 ft | 10 kts | 268° |
| 2026-04-20 14:02 | -8.74662 | 115.17045 | 22 ft | 12 kts | 268° |
| 2026-04-20 14:02 | -8.74666 | 115.16955 | 22 ft | 13 kts | 268° |
| 2026-04-20 14:03 | -8.74670 | 115.16858 | 22 ft | 14 kts | 268° |
| 2026-04-20 14:03 | -8.74674 | 115.16753 | 22 ft | 15 kts | 268° |
| 2026-04-20 14:03 | -8.74678 | 115.16643 | 22 ft | 15 kts | 268° |
| 2026-04-20 14:03 | -8.74682 | 115.16536 | 22 ft | 10 kts | 268° |
| 2026-04-20 14:04 | -8.74685 | 115.16468 | 22 ft | 10 kts | 268° |
| 2026-04-20 14:04 | -8.74688 | 115.16389 | 22 ft | 11 kts | 268° |
| 2026-04-20 14:04 | -8.74691 | 115.16318 | 22 ft | 4 kts | 268° |
| 2026-04-20 14:04 | -8.74692 | 115.16283 | 22 ft | 3 kts | 268° |
| 2026-04-20 14:05 | -8.74693 | 115.16264 | 22 ft | 2 kts | 268° |
| 2026-04-20 14:05 | -8.74693 | 115.16258 | 22 ft | 1 kts | 268° |
| 2026-04-20 14:05 | -8.74694 | 115.16241 | 22 ft | 3 kts | 268° |
| 2026-04-20 14:05 | -8.74682 | 115.16210 | 22 ft | 7 kts | 334° |
| 2026-04-20 14:06 | -8.74626 | 115.16204 | 22 ft | 8 kts | 359° |
| 2026-04-20 14:06 | -8.74583 | 115.16203 | 22 ft | 0 kts | 359° |
| 2026-04-20 14:06 | -8.74571 | 115.16203 | 22 ft | 2 kts | 359° |
| 2026-04-20 14:06 | -8.74570 | 115.16203 | 22 ft | 0 kts | 359° |